createdAt,value
2023-04-26T00:00:13.922Z,95002.00
2023-04-26T00:01:13.915Z,95000.00
2023-04-26T00:02:13.934Z,95000.00
2023-04-26T00:03:14.018Z,95002.00
2023-04-26T00:04:14.238Z,95002.00
2023-04-26T00:05:14.135Z,94998.00
2023-04-26T00:06:13.910Z,94998.00
2023-04-26T00:07:13.926Z,94996.00
2023-04-26T00:08:13.908Z,94994.00
2023-04-26T00:09:13.906Z,94996.00
2023-04-26T00:10:13.933Z,94998.00
2023-04-26T00:11:13.933Z,94998.00
2023-04-26T00:12:13.890Z,94996.00
2023-04-26T00:13:13.892Z,94996.00
2023-04-26T00:14:13.882Z,94994.00
2023-04-26T00:15:13.881Z,94996.00
2023-04-26T00:16:13.919Z,94996.00
2023-04-26T00:17:13.869Z,94998.00
2023-04-26T00:18:13.944Z,94998.00
2023-04-26T00:19:14.004Z,94996.00
2023-04-26T00:20:13.860Z,94996.00
2023-04-26T00:21:13.871Z,94996.00
2023-04-26T00:22:13.859Z,94996.00
2023-04-26T00:23:13.874Z,94994.00
2023-04-26T00:24:13.845Z,94994.00
2023-04-26T00:25:13.842Z,94994.00
2023-04-26T00:26:13.865Z,94996.00
2023-04-26T00:27:13.826Z,94996.00
2023-04-26T00:28:13.855Z,94998.00
2023-04-26T00:29:13.823Z,94996.00
2023-04-26T00:30:13.839Z,95002.00
2023-04-26T00:31:13.839Z,95002.00
2023-04-26T00:32:13.846Z,94998.00
2023-04-26T00:33:13.809Z,94998.00
2023-04-26T00:34:13.807Z,94998.00
2023-04-26T00:35:13.800Z,95000.00
2023-04-26T00:36:13.796Z,94998.00
2023-04-26T00:37:13.790Z,94998.00
2023-04-26T00:38:13.783Z,94998.00
2023-04-26T00:39:13.778Z,94996.00
2023-04-26T00:40:13.769Z,94996.00
2023-04-26T00:41:13.755Z,94996.00
2023-04-26T00:42:13.776Z,94998.00
2023-04-26T00:43:13.741Z,94998.00
2023-04-26T00:44:13.737Z,94998.00
2023-04-26T00:45:13.729Z,94996.00
2023-04-26T00:46:13.850Z,94998.00
2023-04-26T00:47:13.732Z,94998.00
2023-04-26T00:48:13.720Z,94996.00
2023-04-26T00:49:13.715Z,94996.00
2023-04-26T00:50:13.716Z,94996.00
2023-04-26T00:51:13.725Z,94998.00
2023-04-26T00:52:13.715Z,94998.00
2023-04-26T00:53:13.765Z,94998.00
2023-04-26T00:54:13.830Z,94998.00
2023-04-26T00:55:13.919Z,94992.00
2023-04-26T00:56:14.019Z,95000.00
2023-04-26T00:57:14.033Z,94994.00
2023-04-26T00:58:14.123Z,94996.00
2023-04-26T00:59:14.167Z,94996.00
2023-04-26T01:00:14.233Z,94998.00
2023-04-26T01:01:14.354Z,94994.00
2023-04-26T01:02:14.448Z,95000.00
2023-04-26T01:03:14.587Z,95000.00
2023-04-26T01:04:14.675Z,94994.00
2023-04-26T01:05:14.588Z,94992.00
2023-04-26T01:06:14.630Z,94996.00
2023-04-26T01:07:14.697Z,94996.00
2023-04-26T01:08:14.755Z,94994.00
2023-04-26T01:09:14.818Z,94994.00
2023-04-26T01:10:14.880Z,94990.00
2023-04-26T01:11:14.934Z,94990.00
2023-04-26T01:12:15.001Z,94990.00
2023-04-26T01:13:15.069Z,94990.00
2023-04-26T01:14:15.146Z,94990.00
2023-04-26T01:15:15.195Z,94994.00
2023-04-26T01:16:15.217Z,94990.00
2023-04-26T01:17:15.291Z,94988.00
2023-04-26T01:18:15.227Z,94986.00
2023-04-26T01:19:15.302Z,94986.00
2023-04-26T01:20:15.238Z,94982.00
2023-04-26T01:21:15.235Z,94982.00
2023-04-26T01:22:15.238Z,94982.00
2023-04-26T01:23:15.248Z,94980.00
2023-04-26T01:24:15.261Z,94988.00
2023-04-26T01:25:15.259Z,94986.00
2023-04-26T01:26:15.257Z,94988.00
2023-04-26T01:27:15.262Z,94982.00
2023-04-26T01:28:15.272Z,94982.00
2023-04-26T01:29:15.269Z,94984.00
2023-04-26T01:30:15.301Z,94982.00
2023-04-26T01:31:15.382Z,94984.00
2023-04-26T01:32:15.292Z,94982.00
2023-04-26T01:33:15.310Z,94980.00
2023-04-26T01:34:15.326Z,94976.00
2023-04-26T01:35:15.385Z,94976.00
2023-04-26T01:36:15.444Z,94976.00
2023-04-26T01:37:15.495Z,94976.00
2023-04-26T01:38:15.554Z,94976.00
2023-04-26T01:39:15.622Z,94978.00
2023-04-26T01:40:15.712Z,94976.00
2023-04-26T01:41:15.746Z,94978.00
2023-04-26T01:42:15.786Z,94978.00
2023-04-26T01:43:15.846Z,94976.00
2023-04-26T01:44:15.881Z,94976.00
2023-04-26T01:45:15.924Z,94976.00
2023-04-26T01:46:16.007Z,94974.00
2023-04-26T01:47:15.978Z,94976.00
2023-04-26T01:48:16.029Z,94974.00
2023-04-26T01:49:16.063Z,94976.00
2023-04-26T01:50:16.073Z,94978.00
2023-04-26T01:51:16.097Z,94976.00
2023-04-26T01:52:16.129Z,94982.00
2023-04-26T01:53:16.187Z,94986.00
2023-04-26T01:54:16.192Z,94988.00
2023-04-26T01:55:16.230Z,94990.00
2023-04-26T01:56:16.256Z,94988.00
2023-04-26T01:57:16.300Z,94988.00
2023-04-26T01:58:16.333Z,94988.00
2023-04-26T01:59:16.363Z,94986.00
2023-04-26T02:00:16.396Z,94984.00
2023-04-26T02:01:16.505Z,94984.00
2023-04-26T02:02:16.562Z,94982.00
2023-04-26T02:03:16.589Z,94984.00
2023-04-26T02:04:16.617Z,94982.00
2023-04-26T02:05:16.761Z,94984.00
2023-04-26T02:06:16.715Z,94982.00
2023-04-26T02:07:16.756Z,94982.00
2023-04-26T02:08:16.815Z,94980.00
2023-04-26T02:09:16.886Z,94980.00
2023-04-26T02:10:16.958Z,94980.00
2023-04-26T02:11:17.047Z,94982.00
2023-04-26T02:12:17.086Z,94980.00
2023-04-26T02:13:17.150Z,94982.00
2023-04-26T02:14:17.209Z,94986.00
2023-04-26T02:15:17.277Z,94986.00
2023-04-26T02:16:17.393Z,94986.00
2023-04-26T02:17:17.397Z,94988.00
2023-04-26T02:18:17.490Z,94988.00
2023-04-26T02:19:17.522Z,94986.00
2023-04-26T02:20:17.600Z,94986.00
2023-04-26T02:21:17.652Z,94990.00
2023-04-26T02:22:17.716Z,94988.00
2023-04-26T02:23:17.773Z,94986.00
2023-04-26T02:24:17.796Z,94986.00
2023-04-26T02:25:17.845Z,94982.00
2023-04-26T02:26:17.912Z,94984.00
2023-04-26T02:27:17.958Z,94984.00
2023-04-26T02:28:18.033Z,94988.00
2023-04-26T02:29:18.087Z,94988.00
2023-04-26T02:30:18.116Z,94988.00
2023-04-26T02:31:18.199Z,94990.00
2023-04-26T02:32:18.206Z,94988.00
2023-04-26T02:33:18.262Z,94990.00
2023-04-26T02:34:18.341Z,94988.00
2023-04-26T02:35:18.316Z,94986.00
2023-04-26T02:36:18.327Z,94982.00
2023-04-26T02:37:19.176Z,94982.00
2023-04-26T02:38:18.348Z,94984.00
2023-04-26T02:39:18.677Z,94984.00
2023-04-26T02:40:18.352Z,94988.00
2023-04-26T02:41:18.358Z,94990.00
2023-04-26T02:42:18.362Z,94990.00
2023-04-26T02:43:18.372Z,94990.00
2023-04-26T02:44:18.401Z,94990.00
2023-04-26T02:45:18.389Z,94992.00
2023-04-26T02:46:18.418Z,94992.00
2023-04-26T02:47:18.388Z,94994.00
2023-04-26T02:48:18.397Z,94996.00
2023-04-26T02:49:18.417Z,94996.00
2023-04-26T02:50:18.452Z,94996.00
2023-04-26T02:51:18.423Z,94996.00
2023-04-26T02:52:18.431Z,94992.00
2023-04-26T02:53:18.437Z,94992.00
2023-04-26T02:54:18.448Z,94988.00
2023-04-26T02:55:18.466Z,94990.00
2023-04-26T02:56:18.462Z,94990.00
2023-04-26T02:57:18.463Z,94990.00
2023-04-26T02:58:18.487Z,94988.00
2023-04-26T02:59:18.478Z,94988.00
2023-04-26T03:00:18.479Z,94986.00
2023-04-26T03:01:18.510Z,94984.00
2023-04-26T03:02:18.562Z,94982.00
2023-04-26T03:03:18.690Z,94982.00
2023-04-26T03:04:18.720Z,94984.00
2023-04-26T03:05:18.509Z,94988.00
2023-04-26T03:06:18.666Z,94988.00
2023-04-26T03:07:18.513Z,94988.00
2023-04-26T03:08:18.530Z,94984.00
2023-04-26T03:09:18.581Z,94984.00
2023-04-26T03:10:18.630Z,94984.00
2023-04-26T03:11:18.696Z,94982.00
2023-04-26T03:12:18.758Z,94986.00
2023-04-26T03:13:18.833Z,94984.00
2023-04-26T03:14:18.879Z,94984.00
2023-04-26T03:15:18.951Z,94980.00
2023-04-26T03:16:19.021Z,94978.00
2023-04-26T03:17:18.992Z,94980.00
2023-04-26T03:18:18.985Z,94980.00
2023-04-26T03:19:18.990Z,94980.00
2023-04-26T03:20:18.992Z,94980.00
2023-04-26T03:21:18.983Z,94980.00
2023-04-26T03:22:19.007Z,94980.00
2023-04-26T03:23:18.983Z,94978.00
2023-04-26T03:24:19.005Z,94980.00
2023-04-26T03:25:19.004Z,94984.00
2023-04-26T03:26:18.987Z,94980.00
2023-04-26T03:27:18.990Z,94980.00
2023-04-26T03:28:18.985Z,94980.00
2023-04-26T03:29:18.987Z,94984.00
2023-04-26T03:30:18.985Z,94984.00
2023-04-26T03:31:19.037Z,94984.00
2023-04-26T03:32:19.137Z,94988.00
2023-04-26T03:33:19.146Z,94986.00
2023-04-26T03:34:19.215Z,94988.00
2023-04-26T03:35:19.277Z,94988.00
2023-04-26T03:36:19.333Z,94988.00
2023-04-26T03:37:19.398Z,94990.00
2023-04-26T03:38:19.465Z,94988.00
2023-04-26T03:39:19.519Z,94992.00
2023-04-26T03:40:19.570Z,94992.00
2023-04-26T03:41:19.632Z,94992.00
2023-04-26T03:42:19.693Z,94994.00
2023-04-26T03:43:19.752Z,94998.00
2023-04-26T03:44:19.790Z,94998.00
2023-04-26T03:45:19.779Z,94994.00
2023-04-26T03:46:19.779Z,94996.00
2023-04-26T03:47:19.767Z,94994.00
2023-04-26T03:48:19.780Z,94994.00
2023-04-26T03:49:19.779Z,94990.00
2023-04-26T03:50:19.768Z,94996.00
2023-04-26T03:51:19.776Z,94996.00
2023-04-26T03:52:19.788Z,94998.00
2023-04-26T03:53:19.776Z,95004.00
2023-04-26T03:54:19.806Z,95006.00
2023-04-26T03:55:19.828Z,95006.00
2023-04-26T03:56:19.815Z,95006.00
2023-04-26T03:57:19.828Z,95008.00
2023-04-26T03:58:19.851Z,95008.00
2023-04-26T03:59:19.884Z,95006.00
2023-04-26T04:00:19.928Z,95006.00
2023-04-26T04:01:19.966Z,95006.00
2023-04-26T04:02:20.061Z,95008.00
2023-04-26T04:03:20.180Z,95008.00
2023-04-26T04:04:20.327Z,95008.00
2023-04-26T04:05:20.161Z,95010.00
2023-04-26T04:06:20.169Z,95006.00
2023-04-26T04:07:20.227Z,95012.00
2023-04-26T04:08:20.271Z,95010.00
2023-04-26T04:09:20.349Z,95008.00
2023-04-26T04:10:20.426Z,95010.00
2023-04-26T04:11:20.448Z,95010.00
2023-04-26T04:12:20.514Z,95010.00
2023-04-26T04:13:20.566Z,95012.00
2023-04-26T04:14:20.645Z,95014.00
2023-04-26T04:15:20.659Z,95012.00
2023-04-26T04:16:20.803Z,95014.00
2023-04-26T04:17:20.746Z,95014.00
2023-04-26T04:18:20.804Z,95014.00
2023-04-26T04:19:20.882Z,95015.00
2023-04-26T04:20:20.919Z,95015.00
2023-04-26T04:21:20.996Z,95017.00
2023-04-26T04:22:21.057Z,95019.00
2023-04-26T04:23:21.103Z,95017.00
2023-04-26T04:24:21.262Z,95021.00
2023-04-26T04:25:21.288Z,95023.00
2023-04-26T04:26:21.353Z,95023.00
2023-04-26T04:27:21.321Z,95023.00
2023-04-26T04:28:21.372Z,95021.00
2023-04-26T04:29:21.480Z,95025.00
2023-04-26T04:30:21.486Z,95027.00
2023-04-26T04:31:21.543Z,95029.00
2023-04-26T04:32:21.573Z,95035.00
2023-04-26T04:33:21.647Z,95033.00
2023-04-26T04:34:21.695Z,95033.00
2023-04-26T04:35:21.742Z,95033.00
2023-04-26T04:36:21.788Z,95033.00
2023-04-26T04:37:21.844Z,95031.00
2023-04-26T04:38:21.910Z,95033.00
2023-04-26T04:39:21.963Z,95033.00
2023-04-26T04:40:22.019Z,95033.00
2023-04-26T04:41:22.074Z,95035.00
2023-04-26T04:42:22.161Z,95037.00
2023-04-26T04:43:22.195Z,95035.00
2023-04-26T04:44:22.258Z,95035.00
2023-04-26T04:45:22.325Z,95039.00
2023-04-26T04:46:22.428Z,95041.00
2023-04-26T04:47:22.502Z,95041.00
2023-04-26T04:48:22.515Z,95041.00
2023-04-26T04:49:22.560Z,95039.00
2023-04-26T04:50:22.613Z,95041.00
2023-04-26T04:51:22.645Z,95041.00
2023-04-26T04:52:22.671Z,95043.00
2023-04-26T04:53:22.708Z,95041.00
2023-04-26T04:54:22.744Z,95045.00
2023-04-26T04:55:22.782Z,95045.00
2023-04-26T04:56:22.911Z,95049.00
2023-04-26T04:57:22.873Z,95047.00
2023-04-26T04:58:22.949Z,95047.00
2023-04-26T04:59:22.960Z,95049.00
2023-04-26T05:00:23.026Z,95047.00
2023-04-26T05:01:23.089Z,95049.00
2023-04-26T05:02:23.305Z,95047.00
2023-04-26T05:03:23.282Z,95049.00
2023-04-26T05:04:23.532Z,95049.00
2023-04-26T05:05:23.288Z,95051.00
2023-04-26T05:06:23.321Z,95051.00
2023-04-26T05:07:24.608Z,95053.00
2023-04-26T05:08:23.447Z,95057.00
2023-04-26T05:09:23.486Z,95057.00
2023-04-26T05:10:23.739Z,95057.00
2023-04-26T05:11:23.610Z,95057.00
2023-04-26T05:12:23.648Z,95061.00
2023-04-26T05:13:23.694Z,95063.00
2023-04-26T05:14:23.798Z,95065.00
2023-04-26T05:15:23.801Z,95065.00
2023-04-26T05:16:23.918Z,95067.00
2023-04-26T05:17:23.904Z,95067.00
2023-04-26T05:18:23.907Z,95067.00
2023-04-26T05:19:23.942Z,95070.00
2023-04-26T05:20:23.973Z,95070.00
2023-04-26T05:21:24.299Z,95070.00
2023-04-26T05:22:24.046Z,95070.00
2023-04-26T05:23:24.112Z,95070.00
2023-04-26T05:24:24.130Z,95069.00
2023-04-26T05:25:24.211Z,95070.00
2023-04-26T05:26:24.215Z,95070.00
2023-04-26T05:27:24.248Z,95070.00
2023-04-26T05:28:24.270Z,95070.00
2023-04-26T05:29:24.307Z,95070.00
2023-04-26T05:30:24.370Z,95070.00
2023-04-26T05:31:24.418Z,95074.00
2023-04-26T05:32:24.439Z,95074.00
2023-04-26T05:33:24.487Z,95076.00
2023-04-26T05:34:24.541Z,95076.00
2023-04-26T05:35:24.749Z,95074.00
2023-04-26T05:36:24.635Z,95076.00
2023-04-26T05:37:24.654Z,95076.00
2023-04-26T05:38:24.696Z,95072.00
2023-04-26T05:39:24.739Z,95074.00
2023-04-26T05:40:25.254Z,95074.00
2023-04-26T05:41:24.843Z,95074.00
2023-04-26T05:42:24.897Z,95072.00
2023-04-26T05:43:24.921Z,95078.00
2023-04-26T05:44:24.944Z,95078.00
2023-04-26T05:45:25.330Z,95080.00
2023-04-26T05:46:25.203Z,95078.00
2023-04-26T05:47:25.067Z,95078.00
2023-04-26T05:48:25.090Z,95080.00
2023-04-26T05:49:25.130Z,95080.00
2023-04-26T05:50:25.292Z,95080.00
2023-04-26T05:51:25.216Z,95080.00
2023-04-26T05:52:25.245Z,95080.00
2023-04-26T05:53:25.806Z,95084.00
2023-04-26T05:54:25.329Z,95082.00
2023-04-26T05:55:25.754Z,95080.00
2023-04-26T05:56:25.471Z,95084.00
2023-04-26T05:57:25.636Z,95086.00
2023-04-26T05:58:25.788Z,95090.00
2023-04-26T05:59:25.632Z,95092.00
2023-04-26T06:00:25.730Z,95092.00
2023-04-26T06:01:25.744Z,95090.00
2023-04-26T06:02:26.433Z,95090.00
2023-04-26T06:03:26.050Z,95094.00
2023-04-26T06:04:26.154Z,95090.00
2023-04-26T06:05:26.512Z,95090.00
2023-04-26T06:06:25.990Z,95090.00
2023-04-26T06:07:26.280Z,95092.00
2023-04-26T06:08:26.075Z,95092.00
2023-04-26T06:09:26.107Z,95094.00
2023-04-26T06:10:26.257Z,95092.00
2023-04-26T06:11:26.191Z,95094.00
2023-04-26T06:12:26.210Z,95094.00
2023-04-26T06:13:26.231Z,95094.00
2023-04-26T06:14:30.522Z,95098.00
2023-04-26T06:15:26.761Z,95100.00
2023-04-26T06:16:26.526Z,95102.00
2023-04-26T06:17:26.572Z,95100.00
2023-04-26T06:18:26.591Z,95102.00
2023-04-26T06:19:26.564Z,95104.00
2023-04-26T06:20:26.761Z,95102.00
2023-04-26T06:21:26.601Z,95100.00
2023-04-26T06:22:26.623Z,95104.00
2023-04-26T06:23:26.616Z,95102.00
2023-04-26T06:24:27.179Z,95104.00
2023-04-26T06:25:26.639Z,95102.00
2023-04-26T06:26:26.763Z,95104.00
2023-04-26T06:27:26.650Z,95108.00
2023-04-26T06:28:26.660Z,95106.00
2023-04-26T06:29:26.662Z,95108.00
2023-04-26T06:30:26.679Z,95106.00
2023-04-26T06:31:26.735Z,95106.00
2023-04-26T06:32:26.737Z,95108.00
2023-04-26T06:33:26.717Z,95106.00
2023-04-26T06:34:27.804Z,95106.00
2023-04-26T06:35:26.770Z,95104.00
2023-04-26T06:36:26.789Z,95102.00
2023-04-26T06:37:27.273Z,95106.00
2023-04-26T06:38:27.051Z,95106.00
2023-04-26T06:39:26.855Z,95104.00
2023-04-26T06:40:26.892Z,95106.00
2023-04-26T06:41:27.273Z,95108.00
2023-04-26T06:42:26.931Z,95110.00
2023-04-26T06:43:26.961Z,95112.00
2023-04-26T06:44:26.996Z,95106.00
2023-04-26T06:45:27.273Z,95110.00
2023-04-26T06:46:28.063Z,95112.00
2023-04-26T06:47:27.101Z,95112.00
2023-04-26T06:48:27.083Z,95110.00
2023-04-26T06:49:27.114Z,95108.00
2023-04-26T06:50:27.435Z,95110.00
2023-04-26T06:51:27.171Z,95112.00
2023-04-26T06:52:27.301Z,95112.00
2023-04-26T06:53:27.261Z,95112.00
2023-04-26T06:54:27.255Z,95112.00
2023-04-26T06:55:27.792Z,95112.00
2023-04-26T06:56:28.325Z,95110.00
2023-04-26T06:57:27.353Z,95110.00
2023-04-26T06:58:27.384Z,95112.00
2023-04-26T06:59:27.426Z,95112.00
2023-04-26T07:00:27.853Z,95116.00
2023-04-26T07:01:27.506Z,95117.00
2023-04-26T07:02:27.910Z,95114.00
2023-04-26T07:03:27.663Z,95114.00
2023-04-26T07:04:27.784Z,95110.00
2023-04-26T07:05:27.603Z,95110.00
2023-04-26T07:06:27.712Z,95110.00
2023-04-26T07:07:27.826Z,95114.00
2023-04-26T07:08:28.414Z,95110.00
2023-04-26T07:09:27.862Z,95108.00
2023-04-26T07:10:27.925Z,95108.00
2023-04-26T07:11:27.818Z,95108.00
2023-04-26T07:12:30.396Z,95106.00
2023-04-26T07:13:28.073Z,95106.00
2023-04-26T07:14:27.846Z,95108.00
2023-04-26T07:15:27.866Z,95106.00
2023-04-26T07:16:28.939Z,95104.00
2023-04-26T07:17:27.905Z,95104.00
2023-04-26T07:18:28.293Z,95104.00
2023-04-26T07:19:27.784Z,95108.00
2023-04-26T07:20:27.769Z,95104.00
2023-04-26T07:21:27.760Z,95102.00
2023-04-26T07:22:27.780Z,95106.00
2023-04-26T07:23:27.789Z,95106.00
2023-04-26T07:24:27.742Z,95106.00
2023-04-26T07:25:27.735Z,95106.00
2023-04-26T07:26:27.767Z,95104.00
2023-04-26T07:27:28.300Z,95106.00
2023-04-26T07:28:28.288Z,95104.00
2023-04-26T07:29:27.854Z,95102.00
2023-04-26T07:30:28.501Z,95096.00
2023-04-26T07:31:28.415Z,95102.00
2023-04-26T07:32:28.072Z,95098.00
2023-04-26T07:33:28.404Z,95098.00
2023-04-26T07:34:27.966Z,95100.00
2023-04-26T07:35:27.971Z,95106.00
2023-04-26T07:36:27.987Z,95102.00
2023-04-26T07:37:27.972Z,95102.00
2023-04-26T07:38:28.415Z,95104.00
2023-04-26T07:39:27.962Z,95102.00
2023-04-26T07:40:28.364Z,95100.00
2023-04-26T07:41:27.988Z,95100.00
2023-04-26T07:42:28.124Z,95100.00
2023-04-26T07:43:27.928Z,95100.00
2023-04-26T07:44:27.935Z,95102.00
2023-04-26T07:45:28.367Z,95104.00
2023-04-26T07:46:27.917Z,95108.00
2023-04-26T07:47:27.941Z,95106.00
2023-04-26T07:48:27.884Z,95108.00
2023-04-26T07:49:27.875Z,95108.00
2023-04-26T07:50:28.303Z,95110.00
2023-04-26T07:51:27.856Z,95108.00
2023-04-26T07:52:27.855Z,95110.00
2023-04-26T07:53:27.830Z,95108.00
2023-04-26T07:54:27.852Z,95108.00
2023-04-26T07:55:28.304Z,95108.00
2023-04-26T07:56:27.815Z,95106.00
2023-04-26T07:57:28.578Z,95108.00
2023-04-26T07:58:27.808Z,95106.00
2023-04-26T07:59:27.789Z,95106.00
2023-04-26T08:00:27.809Z,95104.00
2023-04-26T08:01:27.796Z,95104.00
2023-04-26T08:02:43.454Z,95106.00
2023-04-26T08:03:28.131Z,95104.00
2023-04-26T08:04:27.922Z,95106.00
2023-04-26T08:05:28.104Z,95108.00
2023-04-26T08:06:27.755Z,95112.00
2023-04-26T08:07:27.746Z,95108.00
2023-04-26T08:08:27.740Z,95106.00
2023-04-26T08:09:27.720Z,95104.00
2023-04-26T08:10:27.893Z,95106.00
2023-04-26T08:11:27.839Z,95104.00
2023-04-26T08:12:27.700Z,95110.00
2023-04-26T08:13:31.077Z,95108.00
2023-04-26T08:14:27.701Z,95110.00
2023-04-26T08:15:27.809Z,95106.00
2023-04-26T08:16:27.716Z,95100.00
2023-04-26T08:17:27.677Z,95100.00
2023-04-26T08:18:27.651Z,95102.00
2023-04-26T08:19:27.604Z,95100.00
2023-04-26T08:20:31.016Z,95100.00
2023-04-26T08:21:27.557Z,95100.00
2023-04-26T08:22:27.543Z,95100.00
2023-04-26T08:23:27.545Z,95104.00
2023-04-26T08:24:27.516Z,95100.00
2023-04-26T08:25:27.812Z,95106.00
2023-04-26T08:26:28.117Z,95106.00
2023-04-26T08:27:27.458Z,95100.00
2023-04-26T08:28:27.457Z,95102.00
2023-04-26T08:29:27.436Z,95100.00
2023-04-26T08:30:27.428Z,95098.00
2023-04-26T08:31:27.952Z,95098.00
2023-04-26T08:32:27.442Z,95098.00
2023-04-26T08:33:27.388Z,95096.00
2023-04-26T08:34:27.368Z,95098.00
2023-04-26T08:35:27.827Z,95098.00
2023-04-26T08:36:27.344Z,95096.00
2023-04-26T08:37:29.216Z,95094.00
2023-04-26T08:38:27.354Z,95092.00
2023-04-26T08:39:27.339Z,95090.00
2023-04-26T08:40:27.834Z,95088.00
2023-04-26T08:41:27.833Z,95084.00
2023-04-26T08:42:27.332Z,95082.00
2023-04-26T08:43:27.276Z,95086.00
2023-04-26T08:44:27.258Z,95086.00
2023-04-26T08:45:27.369Z,95086.00
2023-04-26T08:46:27.347Z,95084.00
2023-04-26T08:47:27.251Z,95086.00
2023-04-26T08:48:27.205Z,95084.00
2023-04-26T08:49:27.188Z,95086.00
2023-04-26T08:50:27.341Z,95086.00
2023-04-26T08:51:27.165Z,95086.00
2023-04-26T08:52:27.150Z,95086.00
2023-04-26T08:53:27.140Z,95082.00
2023-04-26T08:54:27.129Z,95082.00
2023-04-26T08:55:27.328Z,95078.00
2023-04-26T08:56:27.157Z,95074.00
2023-04-26T08:57:27.106Z,95076.00
2023-04-26T08:58:27.109Z,95072.00
2023-04-26T08:59:27.046Z,95076.00
2023-04-26T09:00:27.377Z,95072.00
2023-04-26T09:01:27.380Z,95076.00
2023-04-26T09:02:27.209Z,95072.00
2023-04-26T09:03:27.135Z,95076.00
2023-04-26T09:04:27.224Z,95072.00
2023-04-26T09:05:26.985Z,95069.00
2023-04-26T09:06:27.409Z,95067.00
2023-04-26T09:07:27.366Z,95065.00
2023-04-26T09:08:26.897Z,95065.00
2023-04-26T09:09:29.137Z,95067.00
2023-04-26T09:10:26.911Z,95065.00
2023-04-26T09:11:26.852Z,95061.00
2023-04-26T09:12:26.837Z,95067.00
2023-04-26T09:13:26.910Z,95061.00
2023-04-26T09:14:26.819Z,95063.00
2023-04-26T09:15:26.874Z,95057.00
2023-04-26T09:16:26.805Z,95055.00
2023-04-26T09:17:26.840Z,95057.00
2023-04-26T09:18:26.732Z,95057.00
2023-04-26T09:19:26.718Z,95057.00
2023-04-26T09:20:26.707Z,95051.00
2023-04-26T09:21:26.835Z,95057.00
2023-04-26T09:22:26.654Z,95053.00
2023-04-26T09:23:26.631Z,95055.00
2023-04-26T09:24:26.832Z,95055.00
2023-04-26T09:25:26.589Z,95053.00
2023-04-26T09:26:26.602Z,95057.00
2023-04-26T09:27:26.555Z,95055.00
2023-04-26T09:28:26.525Z,95053.00
2023-04-26T09:29:26.831Z,95053.00
2023-04-26T09:30:26.541Z,95053.00
2023-04-26T09:31:26.861Z,95047.00
2023-04-26T09:32:27.454Z,95049.00
2023-04-26T09:33:26.479Z,95049.00
2023-04-26T09:34:26.449Z,95053.00
2023-04-26T09:35:26.417Z,95051.00
2023-04-26T09:36:26.840Z,95047.00
2023-04-26T09:37:26.365Z,95041.00
2023-04-26T09:38:26.340Z,95039.00
2023-04-26T09:39:26.316Z,95041.00
2023-04-26T09:40:26.288Z,95041.00
2023-04-26T09:41:26.347Z,95039.00
2023-04-26T09:42:26.252Z,95037.00
2023-04-26T09:43:26.270Z,95037.00
2023-04-26T09:44:26.304Z,95037.00
2023-04-26T09:45:26.838Z,95035.00
2023-04-26T09:46:26.436Z,95033.00
2023-04-26T09:47:26.384Z,95027.00
2023-04-26T09:48:26.401Z,95029.00
2023-04-26T09:49:26.845Z,95027.00
2023-04-26T09:50:26.457Z,95029.00
2023-04-26T09:51:26.851Z,95025.00
2023-04-26T09:52:26.454Z,95021.00
2023-04-26T09:53:27.464Z,95021.00
2023-04-26T09:54:26.433Z,95021.00
2023-04-26T09:55:35.032Z,95021.00
2023-04-26T09:56:26.399Z,95023.00
2023-04-26T09:57:26.382Z,95019.00
2023-04-26T09:58:26.365Z,95017.00
2023-04-26T09:59:26.337Z,95017.00
2023-04-26T10:00:26.339Z,95015.00
2023-04-26T10:01:26.455Z,95015.00
2023-04-26T10:02:26.619Z,95015.00
2023-04-26T10:03:26.519Z,95015.00
2023-04-26T10:04:26.314Z,95014.00
2023-04-26T10:05:26.234Z,95015.00
2023-04-26T10:06:27.433Z,95012.00
2023-04-26T10:07:26.214Z,95014.00
2023-04-26T10:08:26.168Z,95012.00
2023-04-26T10:09:26.167Z,95010.00
2023-04-26T10:10:26.152Z,95010.00
2023-04-26T10:11:26.350Z,95010.00
2023-04-26T10:12:26.119Z,95008.00
2023-04-26T10:13:26.087Z,95008.00
2023-04-26T10:14:26.067Z,95008.00
2023-04-26T10:15:26.062Z,95010.00
2023-04-26T10:16:26.365Z,95010.00
2023-04-26T10:17:26.396Z,95008.00
2023-04-26T10:18:26.023Z,95006.00
2023-04-26T10:19:26.036Z,95006.00
2023-04-26T10:20:25.964Z,95004.00
2023-04-26T10:21:25.954Z,95004.00
2023-04-26T10:22:26.356Z,95002.00
2023-04-26T10:23:25.928Z,95002.00
2023-04-26T10:24:25.902Z,95000.00
2023-04-26T10:25:25.869Z,94998.00
2023-04-26T10:26:26.358Z,94994.00
2023-04-26T10:27:25.896Z,94992.00
2023-04-26T10:28:25.906Z,94992.00
2023-04-26T10:29:25.969Z,94988.00
2023-04-26T10:30:26.168Z,94988.00
2023-04-26T10:31:26.836Z,94986.00
2023-04-26T10:32:26.455Z,94982.00
2023-04-26T10:33:27.481Z,94982.00
2023-04-26T10:34:26.408Z,94976.00
2023-04-26T10:35:26.549Z,94978.00
2023-04-26T10:36:26.728Z,94976.00
2023-04-26T10:37:26.470Z,94974.00
2023-04-26T10:38:26.688Z,94976.00
2023-04-26T10:39:26.147Z,94972.00
2023-04-26T10:40:26.153Z,94974.00
2023-04-26T10:41:26.558Z,94968.00
2023-04-26T10:42:27.082Z,94968.00
2023-04-26T10:43:26.631Z,94972.00
2023-04-26T10:44:26.618Z,94967.00
2023-04-26T10:45:26.680Z,94970.00
2023-04-26T10:46:26.723Z,94967.00
2023-04-26T10:47:26.739Z,94967.00
2023-04-26T10:48:26.690Z,94965.00
2023-04-26T10:49:26.888Z,94961.00
2023-04-26T10:50:26.366Z,94959.00
2023-04-26T10:51:26.376Z,94957.00
2023-04-26T10:52:26.578Z,94959.00
2023-04-26T10:53:26.476Z,94955.00
2023-04-26T10:54:26.372Z,94953.00
2023-04-26T10:55:26.369Z,94957.00
2023-04-26T10:56:26.440Z,94955.00
2023-04-26T10:57:26.865Z,94961.00
2023-04-26T10:58:26.432Z,94957.00
2023-04-26T11:00:25.467Z,94955.00
2023-04-26T11:01:26.449Z,94953.00
2023-04-26T11:02:26.672Z,94953.00
2023-04-26T11:03:26.994Z,94955.00
2023-04-26T11:04:26.456Z,94955.00
2023-04-26T11:05:26.360Z,94955.00
2023-04-26T11:06:26.439Z,94955.00
2023-04-26T11:07:26.327Z,94953.00
2023-04-26T11:08:26.387Z,94949.00
2023-04-26T11:09:26.291Z,94947.00
2023-04-26T11:10:26.261Z,94945.00
2023-04-26T11:11:26.249Z,94947.00
2023-04-26T11:12:26.222Z,94945.00
2023-04-26T11:13:26.196Z,94945.00
2023-04-26T11:14:26.186Z,94947.00
2023-04-26T11:15:26.388Z,94943.00
2023-04-26T11:16:26.780Z,94943.00
2023-04-26T11:17:26.857Z,94943.00
2023-04-26T11:18:26.114Z,94943.00
2023-04-26T11:19:26.100Z,94943.00
2023-04-26T11:20:26.142Z,94941.00
2023-04-26T11:21:26.168Z,94941.00
2023-04-26T11:22:26.242Z,94939.00
2023-04-26T11:23:26.263Z,94943.00
2023-04-26T11:24:26.290Z,94939.00
2023-04-26T11:25:26.329Z,94933.00
2023-04-26T11:26:26.358Z,94935.00
2023-04-26T11:27:26.401Z,94933.00
2023-04-26T11:28:26.453Z,94929.00
2023-04-26T11:29:26.485Z,94929.00
2023-04-26T11:30:26.886Z,94925.00
2023-04-26T11:31:26.618Z,94925.00
2023-04-26T11:32:26.752Z,94923.00
2023-04-26T11:33:26.628Z,94925.00
2023-04-26T11:34:26.660Z,94925.00
2023-04-26T11:35:26.702Z,94923.00
2023-04-26T11:36:26.730Z,94925.00
2023-04-26T11:37:26.762Z,94925.00
2023-04-26T11:38:26.920Z,94925.00
2023-04-26T11:39:26.821Z,94919.00
2023-04-26T11:40:26.854Z,94917.00
2023-04-26T11:41:26.879Z,94917.00
2023-04-26T11:42:26.910Z,94919.00
2023-04-26T11:43:26.985Z,94917.00
2023-04-26T11:44:26.977Z,94919.00
2023-04-26T11:45:27.409Z,94917.00